»·PEaware :: UAL233 KBUR-KSFO

UAL233 :: KBUR-KSFO

FLIGHT INFORMATION

Flight Status: Arrived
Operator:
United Airlines
More flights by this operator :: More flights under this callsign
Pilot: Gabriel S. (32862)
Aircraft: AIRBUS A321
(A321)
More flights by this aircraft type
Origin: KBUR Bob Hope-Burbank
United States
Destination: KSFO San Francisco Intl
United States
More flights between these airports :: More routes between these airports
Route: OROSZ2 COREZ MAKRS SERFR SERFR4
File this flight plan on PilotEdge
Remarks: RMK / SIMBRIEF
Altitude:
(Current/Filed)
34,000ft
Speed:
(Current/Filed)
447kts
Departed: 08-Jan-21 09:21 AM
Arrived: 08-Jan-21 10:19 AM
Distance/Time
Traveled:
283nm/0:57
Distance/Time
To Go:
Arrived

Flight Plot

Page will automatically refresh every two minutes.

Flight plan parsing failed; only flown route is shown


Map Options




Map Legend


Flown Route
Filed Route
Departure Airport
Arrival Airport
Navaid (VOR, NDB)
Fix

Horizontal Profiles

Position Reports

Time Latitude Longitude Heading Altitude Ground
Speed
08-Jan-21 08:53 34.196819 -118.352427 180 708ft 0kts
08-Jan-21 08:54 34.196819 -118.352427 180 708ft 0kts
08-Jan-21 08:55 34.196819 -118.352427 180 708ft 0kts
08-Jan-21 08:56 34.196819 -118.352427 180 708ft 0kts
08-Jan-21 08:57 34.196819 -118.352427 180 708ft 0kts
08-Jan-21 08:58 34.196819 -118.352427 180 708ft 0kts
08-Jan-21 08:59 34.196819 -118.352427 180 708ft 0kts
08-Jan-21 09:00 34.196819 -118.352427 180 708ft 0kts
08-Jan-21 09:01 34.196819 -118.352427 180 708ft 0kts
08-Jan-21 09:02 34.196819 -118.352427 180 708ft 0kts
08-Jan-21 09:03 34.196819 -118.352427 180 708ft 0kts
08-Jan-21 09:04 34.196819 -118.352427 180 708ft 0kts
08-Jan-21 09:05 34.196819 -118.352427 180 708ft 0kts
08-Jan-21 09:06 34.196819 -118.352427 180 708ft 0kts
08-Jan-21 09:07 34.196819 -118.352427 180 708ft 0kts
08-Jan-21 09:08 34.196819 -118.352427 180 708ft 0kts
08-Jan-21 09:09 34.196818 -118.352427 180 708ft 0kts
08-Jan-21 09:10 34.197185 -118.352037 271 709ft 1kts
08-Jan-21 09:11 34.197181 -118.351967 271 709ft 0kts
08-Jan-21 09:12 34.197181 -118.351967 271 709ft 0kts
08-Jan-21 09:13 34.197181 -118.351967 271 709ft 0kts
08-Jan-21 09:14 34.197184 -118.352057 271 709ft 2kts
08-Jan-21 09:15 34.197450 -118.354516 307 714ft 8kts
08-Jan-21 09:16 34.200867 -118.355988 347 730ft 15kts
08-Jan-21 09:17 34.205568 -118.357260 347 753ft 17kts
08-Jan-21 09:19 34.210699 -118.358679 346 776ft 17kts
08-Jan-21 09:20 34.211571 -118.360208 190 782ft 9kts
08-Jan-21 09:21 34.184312 -118.352873 174 1697ft 179kts
08-Jan-21 09:22 34.138622 -118.392408 222 3028ft 235kts
08-Jan-21 09:23 34.084290 -118.449175 222 3994ft 262kts
08-Jan-21 09:24 34.080286 -118.508970 342 3991ft 205kts
08-Jan-21 09:25 34.135176 -118.488063 22 5575ft 212kts
08-Jan-21 09:26 34.187477 -118.496817 324 7998ft 213kts
08-Jan-21 09:27 34.238591 -118.538661 326 9937ft 244kts
08-Jan-21 09:28 34.299892 -118.587046 325 11858ft 277kts
08-Jan-21 09:29 34.372311 -118.642810 329 12934ft 337kts
08-Jan-21 09:30 34.458196 -118.696183 326 15070ft 353kts
08-Jan-21 09:31 34.544925 -118.757533 326 17119ft 366kts
08-Jan-21 09:32 34.634455 -118.820952 325 18989ft 378kts
08-Jan-21 09:33 34.727016 -118.886791 325 20736ft 388kts
08-Jan-21 09:33 34.803104 -118.940986 325 21984ft 398kts
08-Jan-21 09:35 34.916360 -119.021849 325 23749ft 409kts
08-Jan-21 09:36 35.015652 -119.092905 325 25155ft 418kts
08-Jan-21 09:36 35.099954 -119.153467 325 26250ft 424kts
08-Jan-21 09:37 35.203046 -119.227327 325 27485ft 431kts
08-Jan-21 09:38 35.306944 -119.302287 325 28599ft 437kts
08-Jan-21 09:40 35.430003 -119.391521 326 30128ft 435kts
08-Jan-21 09:40 35.514080 -119.458416 314 31146ft 428kts
08-Jan-21 09:41 35.571158 -119.582128 281 32257ft 415kts
08-Jan-21 09:42 35.592061 -119.721402 279 33372ft 412kts
08-Jan-21 09:43 35.612435 -119.859828 278 34331ft 412kts
08-Jan-21 09:44 35.632975 -120.000435 279 34353ft 419kts
08-Jan-21 09:45 35.653419 -120.141097 279 34344ft 419kts
08-Jan-21 09:46 35.674213 -120.282028 281 34331ft 417kts
08-Jan-21 09:47 35.711179 -120.418518 293 34324ft 419kts
08-Jan-21 09:48 35.760943 -120.548903 294 34324ft 418kts
08-Jan-21 09:49 35.810598 -120.679396 294 34323ft 417kts
08-Jan-21 09:50 35.859756 -120.809398 294 34324ft 416kts
08-Jan-21 09:51 35.908533 -120.938546 294 34322ft 415kts
08-Jan-21 09:52 35.956757 -121.066798 294 33928ft 400kts
08-Jan-21 09:53 36.002649 -121.189278 295 32947ft 393kts
08-Jan-21 09:54 36.050025 -121.313372 301 31949ft 393kts
08-Jan-21 09:55 36.126786 -121.410146 326 30054ft 396kts
08-Jan-21 09:56 36.221023 -121.483410 327 27595ft 399kts
08-Jan-21 09:57 36.316441 -121.558032 327 25326ft 393kts
08-Jan-21 09:58 36.407610 -121.629677 327 23423ft 382kts
08-Jan-21 09:59 36.494945 -121.698757 326 22309ft 349kts
08-Jan-21 10:00 36.574195 -121.761441 326 20662ft 339kts
08-Jan-21 10:01 36.652693 -121.823593 326 19100ft 326kts
08-Jan-21 10:02 36.726998 -121.881863 330 17526ft 318kts
08-Jan-21 10:03 36.811365 -121.913482 344 15914ft 313kts
08-Jan-21 10:04 36.895739 -121.937030 344 14322ft 306kts
08-Jan-21 10:05 36.977486 -121.962807 340 12793ft 297kts
08-Jan-21 10:06 37.055565 -121.993289 340 11269ft 291kts
08-Jan-21 10:07 37.134201 -122.023997 340 10057ft 268kts
08-Jan-21 10:08 37.202244 -122.050573 341 8835ft 258kts
08-Jan-21 10:09 37.270556 -122.077330 341 8010ft 246kts
08-Jan-21 10:10 37.340110 -122.104753 341 6504ft 259kts
08-Jan-21 10:11 37.408234 -122.129933 344 5347ft 252kts
08-Jan-21 10:12 37.476283 -122.153249 345 4064ft 250kts
08-Jan-21 10:13 37.537291 -122.179952 308 2968ft 201kts
08-Jan-21 10:14 37.559485 -122.233571 297 2104ft 152kts
08-Jan-21 10:15 37.579522 -122.281556 298 1346ft 148kts
08-Jan-21 10:16 37.598836 -122.327645 299 595ft 147kts
08-Jan-21 10:17 37.617455 -122.372034 298 19ft 111kts
08-Jan-21 10:18 37.620889 -122.383324 195 17ft 9kts
08-Jan-21 10:19 37.619772 -122.383983 214 17ft 0kts
08-Jan-21 10:20 37.619772 -122.383983 214 17ft 0kts
08-Jan-21 10:21 37.619772 -122.383983 214 17ft 0kts

Navigation Log

Ident Type
Flight plan parsing failed, navigation log unavailable